Time;durP1;ratioP1;P1;durP2;ratioP2;P2;SDS_P1;SDS_P2;PMS_P1;PMS_P2;Temp;Humidity;BMP_temperature;BMP_pressure;BME280_temperature;BME280_humidity;BME280_pressure;Samples;Min_cycle;Max_cycle;Signal;HPM_P1;HPM_P2
2021/11/21 00:01:05;;;;;;;26.05;12.30;;;2.50;99.90;;;;;;20752294;28;20430;-77
2021/11/21 00:11:06;;;;;;;25.42;11.90;;;2.50;99.90;;;;;;20748418;28;20061;-77
2021/11/21 00:21:07;;;;;;;26.35;11.75;;;2.30;99.90;;;;;;20732317;28;20067;-76
2021/11/21 00:31:08;;;;;;;24.17;11.55;;;2.30;99.90;;;;;;20751194;28;20049;-76
2021/11/21 00:41:09;;;;;;;26.58;11.73;;;2.30;99.90;;;;;;20681081;28;20034;-75
2021/11/21 00:51:10;;;;;;;24.10;12.32;;;2.10;99.90;;;;;;20667391;28;20113;-74
2021/11/21 01:01:12;;;;;;;26.48;11.68;;;2.10;99.90;;;;;;20667796;28;20485;-76
2021/11/21 01:11:13;;;;;;;25.50;11.95;;;2.20;99.90;;;;;;20666895;28;20026;-76
2021/11/21 01:21:13;;;;;;;26.17;12.18;;;2.00;99.90;;;;;;20666163;28;20030;-75
2021/11/21 01:31:14;;;;;;;26.40;11.40;;;2.00;99.90;;;;;;20663671;28;20117;-76
2021/11/21 01:41:15;;;;;;;27.75;11.23;;;2.00;99.90;;;;;;20664681;28;20044;-76
2021/11/21 01:51:16;;;;;;;22.20;10.60;;;2.00;99.90;;;;;;20661793;28;20034;-77
2021/11/21 02:01:17;;;;;;;27.42;11.38;;;2.00;99.90;;;;;;20663251;28;20156;-76
2021/11/21 02:11:22;;;;;;;25.40;12.02;;;1.90;99.90;;;;;;20662557;28;20508;-76
2021/11/21 02:21:23;;;;;;;22.38;11.25;;;1.90;99.90;;;;;;20661919;28;20044;-76
2021/11/21 02:31:24;;;;;;;23.02;11.40;;;2.00;99.90;;;;;;20660956;28;20113;-76
2021/11/21 02:41:25;;;;;;;25.50;12.02;;;1.80;99.90;;;;;;20660963;28;20482;-76
2021/11/21 02:51:26;;;;;;;22.83;11.80;;;1.80;99.90;;;;;;20660667;28;20378;-76
2021/11/21 03:01:28;;;;;;;28.88;13.40;;;1.60;99.90;;;;;;20662122;28;20516;-77
2021/11/21 03:11:34;;;;;;;28.35;12.27;;;1.50;99.90;;;;;;20674764;28;20022;-76
2021/11/21 03:21:34;;;;;;;27.17;12.70;;;1.50;99.90;;;;;;20675208;28;20088;-76
2021/11/21 03:31:35;;;;;;;26.38;11.55;;;1.50;99.90;;;;;;20674707;28;20097;-76
2021/11/21 03:41:37;;;;;;;25.92;10.68;;;1.70;99.90;;;;;;20673780;28;20054;-78
2021/11/21 03:51:38;;;;;;;23.67;11.20;;;1.70;99.90;;;;;;20673119;28;20089;-77
2021/11/21 04:01:39;;;;;;;22.95;11.15;;;1.80;99.90;;;;;;20672547;28;20054;-76
2021/11/21 04:11:40;;;;;;;20.38;10.07;;;1.80;99.90;;;;;;20671465;28;20149;-77
2021/11/21 04:21:41;;;;;;;21.75;10.20;;;1.70;99.90;;;;;;20670192;28;20121;-76
2021/11/21 04:31:42;;;;;;;30.02;10.07;;;1.80;99.90;;;;;;20672378;28;20441;-76
2021/11/21 04:41:43;;;;;;;20.70;9.63;;;1.80;99.90;;;;;;20668411;28;20039;-76
2021/11/21 04:51:44;;;;;;;24.33;11.27;;;1.60;99.90;;;;;;20651714;28;20485;-76
2021/11/21 05:01:44;;;;;;;25.25;11.38;;;1.60;99.90;;;;;;20667923;28;20030;-77
2021/11/21 05:11:45;;;;;;;26.00;10.15;;;1.60;99.90;;;;;;20666251;28;20030;-76
2021/11/21 05:21:46;;;;;;;24.63;10.77;;;1.60;99.90;;;;;;20665158;28;20133;-77
2021/11/21 05:31:47;;;;;;;27.67;10.63;;;1.50;99.90;;;;;;20665320;28;20061;-76
2021/11/21 05:41:48;;;;;;;24.73;10.52;;;1.50;99.90;;;;;;20664917;28;20106;-76
2021/11/21 05:51:49;;;;;;;26.10;11.50;;;1.40;99.90;;;;;;20664008;28;20030;-75
2021/11/21 06:01:50;;;;;;;27.38;11.98;;;1.40;99.90;;;;;;20663513;28;20425;-76
2021/11/21 06:11:53;;;;;;;29.42;11.65;;;1.50;99.90;;;;;;20662702;28;20027;-76
2021/11/21 06:21:54;;;;;;;22.52;9.18;;;1.40;99.90;;;;;;20661134;28;20117;-77
2021/11/21 06:31:55;;;;;;;17.83;9.75;;;1.20;99.90;;;;;;20662246;28;20092;-77
2021/11/21 06:41:56;;;;;;;27.73;10.90;;;1.20;99.90;;;;;;20657048;28;20441;-76
2021/11/21 06:51:57;;;;;;;31.92;12.57;;;1.20;99.90;;;;;;20663985;28;20104;-76
2021/11/21 07:01:58;;;;;;;27.98;11.35;;;1.20;99.90;;;;;;20661717;28;20030;-77
2021/11/21 07:11:59;;;;;;;25.33;11.50;;;1.10;99.90;;;;;;20659345;28;20390;-76
2021/11/21 07:22:00;;;;;;;43.35;14.27;;;1.20;99.90;;;;;;20717693;28;20030;-76
2021/11/21 07:32:03;;;;;;;39.70;14.30;;;1.20;99.90;;;;;;20739233;28;20022;-76
2021/11/21 07:42:04;;;;;;;36.45;13.15;;;1.30;99.90;;;;;;20732415;28;20021;-76
2021/11/21 07:52:05;;;;;;;30.63;12.32;;;1.40;99.90;;;;;;20744855;28;20030;-75
2021/11/21 08:02:07;;;;;;;36.95;14.23;;;1.50;99.90;;;;;;20751067;28;20022;-74
2021/11/21 08:12:08;;;;;;;24.27;10.88;;;1.50;99.90;;;;;;20750356;28;20366;-76
2021/11/21 08:22:09;;;;;;;31.15;12.05;;;1.70;99.90;;;;;;20746760;28;20459;-75
2021/11/21 08:32:10;;;;;;;35.28;11.27;;;1.70;99.90;;;;;;20723431;28;20397;-76
2021/11/21 08:42:11;;;;;;;30.45;11.23;;;1.70;99.90;;;;;;20721512;28;20022;-75
2021/11/21 08:52:12;;;;;;;32.28;12.10;;;1.90;99.90;;;;;;20744578;28;20404;-75
2021/11/21 09:02:13;;;;;;;37.15;13.63;;;1.80;99.90;;;;;;20744514;28;20559;-75
2021/11/21 09:12:41;;;;;;;36.72;14.20;;;2.00;99.90;;;;;;20709386;28;20034;-76
2021/11/21 09:22:54;;;;;;;36.03;12.68;;;2.10;99.90;;;;;;20705208;28;20038;-74
2021/11/21 09:32:55;;;;;;;30.65;12.10;;;2.20;99.90;;;;;;20701625;28;20111;-76
2021/11/21 09:42:56;;;;;;;30.45;13.07;;;2.40;99.90;;;;;;20746223;28;20030;-76
2021/11/21 09:52:58;;;;;;;33.33;12.50;;;2.50;99.90;;;;;;20745279;28;20021;-74
2021/11/21 10:03:04;;;;;;;30.75;12.50;;;2.70;99.90;;;;;;20742558;28;20563;-77
2021/11/21 10:13:40;;;;;;;29.33;12.35;;;3.10;99.90;;;;;;20734729;28;20068;-76
2021/11/21 10:23:43;;;;;;;30.42;12.82;;;3.10;99.90;;;;;;20733711;28;20057;-76
2021/11/21 10:33:56;;;;;;;27.63;12.00;;;3.20;99.90;;;;;;20741705;28;20026;-75
2021/11/21 10:44:09;;;;;;;23.55;10.88;;;3.50;99.90;;;;;;20677169;28;20446;-77
2021/11/21 10:54:17;;;;;;;27.70;11.88;;;3.50;99.90;;;;;;20734961;28;20553;-76
2021/11/21 11:04:18;;;;;;;27.13;12.20;;;3.40;99.90;;;;;;20736974;28;20026;-76
2021/11/21 11:14:20;;;;;;;24.73;11.40;;;3.40;99.90;;;;;;20677655;22;20085;-78
2021/11/21 11:24:25;;;;;;;23.60;11.93;;;3.60;99.90;;;;;;20634575;28;20146;-76
2021/11/21 11:34:35;;;;;;;26.30;12.02;;;4.00;99.90;;;;;;20648026;28;20034;-78
2021/11/21 11:44:52;;;;;;;23.48;11.48;;;4.10;99.90;;;;;;20627594;28;20197;-78
2021/11/21 11:55:08;;;;;;;24.63;11.27;;;3.80;99.90;;;;;;20639483;28;20042;-78
2021/11/21 12:05:09;;;;;;;24.08;11.80;;;3.70;99.90;;;;;;20643519;28;20034;-78
2021/11/21 12:15:29;;;;;;;24.02;12.15;;;4.10;99.90;;;;;;20641606;28;20555;-77
2021/11/21 12:25:29;;;;;;;23.13;10.98;;;4.40;99.90;;;;;;20641573;28;20038;-78
2021/11/21 12:35:34;;;;;;;;;;;4.60;99.90;;;;;;20647247;28;20500;-79
2021/11/21 12:45:58;;;;;;;28.98;11.38;;;4.70;99.90;;;;;;20638852;28;19921;-78
2021/11/21 12:56:07;;;;;;;25.17;11.18;;;4.80;99.90;;;;;;20639498;28;20046;-77
2021/11/21 13:06:13;;;;;;;23.55;10.00;;;4.90;99.90;;;;;;20638367;28;20057;-78
2021/11/21 13:16:16;;;;;;;22.60;10.25;;;5.00;99.90;;;;;;20633620;28;20081;-76
2021/11/21 13:26:17;;;;;;;24.67;11.23;;;4.90;99.90;;;;;;20638217;28;20073;-77
2021/11/21 13:36:37;;;;;;;24.02;11.50;;;4.70;99.90;;;;;;20635943;28;20038;-77
2021/11/21 13:46:44;;;;;;;21.13;10.25;;;4.70;99.90;;;;;;20629581;28;20045;-77
2021/11/21 13:56:45;;;;;;;23.45;10.35;;;4.60;99.90;;;;;;20629712;28;20038;-77
2021/11/21 14:06:46;;;;;;;23.67;10.98;;;4.50;99.90;;;;;;20628918;28;20054;-77
2021/11/21 14:16:53;;;;;;;24.50;9.65;;;4.50;99.90;;;;;;20623179;28;20807;-78
2021/11/21 14:27:08;;;;;;;25.48;10.55;;;4.50;99.90;;;;;;20627398;28;20054;-78
2021/11/21 14:37:12;;;;;;;30.17;11.25;;;4.50;99.90;;;;;;20633387;28;20082;-78
2021/11/21 14:47:16;;;;;;;22.67;10.18;;;4.50;99.90;;;;;;20629432;28;20114;-77
2021/11/21 14:57:21;;;;;;;23.58;10.73;;;4.60;99.90;;;;;;20627217;28;20037;-77
2021/11/21 15:07:22;;;;;;;28.40;12.50;;;4.50;99.90;;;;;;20641890;28;20026;-77
2021/11/21 15:17:23;;;;;;;;;;;4.50;99.90;;;;;;20641928;28;20097;-77
2021/11/21 15:27:23;;;;;;;32.83;11.88;;;4.40;99.90;;;;;;20645070;28;19922;-78
2021/11/21 15:37:25;;;;;;;28.10;12.23;;;4.30;99.90;;;;;;20650979;28;20034;-78
2021/11/21 15:47:26;;;;;;;31.45;13.00;;;4.30;99.90;;;;;;20652209;28;20061;-77
2021/11/21 15:57:27;;;;;;;34.53;13.68;;;4.10;99.90;;;;;;20642425;28;20053;-77
2021/11/21 16:07:28;;;;;;;33.67;13.35;;;4.10;99.90;;;;;;20640692;28;20568;-78
2021/11/21 16:17:29;;;;;;;;;;;4.00;99.90;;;;;;20632991;28;20042;-75
2021/11/21 16:27:30;;;;;;;35.03;15.55;;;4.10;99.90;;;;;;20639979;28;19977;-78
2021/11/21 16:37:33;;;;;;;32.55;13.43;;;4.10;99.90;;;;;;20630351;28;20508;-78
2021/11/21 16:47:34;;;;;;;31.63;12.88;;;4.10;99.90;;;;;;20636919;28;20045;-78
2021/11/21 16:57:35;;;;;;;29.90;12.43;;;4.00;99.90;;;;;;20642430;28;20034;-78
2021/11/21 17:07:37;;;;;;;35.22;13.50;;;4.00;99.90;;;;;;20640660;28;20044;-78
2021/11/21 17:17:38;;;;;;;36.60;12.85;;;4.00;99.90;;;;;;20753347;23;20042;-78
2021/11/21 17:27:39;;;;;;;;;;;4.00;99.90;;;;;;20696184;28;20077;-77
2021/11/21 17:37:40;;;;;;;21.47;9.60;;;4.10;99.90;;;;;;20669995;28;19917;-78
2021/11/21 17:47:41;;;;;;;;;;;4.10;99.90;;;;;;20671185;28;20045;-77
2021/11/21 17:57:44;;;;;;;28.33;12.65;;;4.10;99.90;;;;;;20668571;28;19913;-78
2021/11/21 18:07:45;;;;;;;29.00;12.50;;;4.10;99.90;;;;;;20667738;28;20037;-77
2021/11/21 18:17:46;;;;;;;;;;;4.20;99.90;;;;;;20668126;28;20034;-77
2021/11/21 18:27:47;;;;;;;37.85;15.07;;;4.20;99.90;;;;;;20668144;28;19918;-76
2021/11/21 18:37:49;;;;;;;;;;;4.10;99.90;;;;;;20666611;28;20040;-75
2021/11/21 18:47:54;;;;;;;40.60;14.30;;;4.20;99.90;;;;;;20665543;28;19925;-75
2021/11/21 18:57:55;;;;;;;35.63;13.65;;;4.20;99.90;;;;;;20665690;28;20041;-77
2021/11/21 19:07:58;;;;;;;24.98;12.00;;;4.30;99.90;;;;;;20662499;28;20030;-77
2021/11/21 19:18:01;;;;;;;30.13;12.77;;;4.30;99.90;;;;;;20665586;28;20034;-76
2021/11/21 19:28:04;;;;;;;30.42;12.70;;;4.40;99.90;;;;;;20664778;28;20042;-76
2021/11/21 19:38:06;;;;;;;30.17;13.18;;;4.40;99.90;;;;;;20678842;28;20037;-78
2021/11/21 19:48:07;;;;;;;34.85;14.75;;;4.40;99.90;;;;;;20678067;28;20116;-77
2021/11/21 19:58:08;;;;;;;43.15;16.20;;;4.30;99.90;;;;;;20690040;28;20030;-77
2021/11/21 20:08:09;;;;;;;;;;;4.10;99.90;;;;;;20624697;28;20377;-76
2021/11/21 20:18:10;;;;;;;38.20;14.65;;;4.10;99.90;;;;;;20645190;28;19914;-78
2021/11/21 20:28:11;;;;;;;46.08;14.63;;;4.00;99.90;;;;;;20632685;28;20029;-77
2021/11/21 20:38:12;;;;;;;;;;;4.00;99.90;;;;;;20595453;28;20038;-77
2021/11/21 20:48:12;;;;;;;44.92;14.82;;;4.00;99.90;;;;;;20629094;28;19913;-78
2021/11/21 20:58:13;;;;;;;;;;;4.00;99.90;;;;;;20636003;28;20030;-77
2021/11/21 21:08:14;;;;;;;40.97;14.55;;;4.00;99.90;;;;;;20628125;28;19914;-76
2021/11/21 21:18:15;;;;;;;38.80;14.68;;;4.10;99.90;;;;;;20633671;28;20027;-78
2021/11/21 21:28:16;;;;;;;41.67;14.68;;;4.10;99.90;;;;;;20640767;28;20030;-78
2021/11/21 21:38:19;;;;;;;36.90;14.23;;;4.10;99.90;;;;;;20627519;28;20030;-77
2021/11/21 21:48:21;;;;;;;37.22;14.35;;;4.10;99.90;;;;;;20663600;28;20042;-77
2021/11/21 21:58:22;;;;;;;42.95;15.73;;;4.10;99.90;;;;;;20674410;28;20030;-77
2021/11/21 22:08:24;;;;;;;34.47;13.90;;;4.10;99.90;;;;;;20673615;28;20125;-76
2021/11/21 22:18:25;;;;;;;33.30;14.20;;;4.10;99.90;;;;;;20663134;28;20130;-76
2021/11/21 22:28:26;;;;;;;40.50;15.00;;;4.10;99.90;;;;;;20662647;28;20530;-76
2021/11/21 22:38:27;;;;;;;;;;;4.10;99.90;;;;;;20662653;28;20117;-76
2021/11/21 22:48:28;;;;;;;32.65;13.75;;;4.00;99.90;;;;;;20661751;28;19953;-76
2021/11/21 22:58:29;;;;;;;;;;;3.90;99.90;;;;;;20661986;28;20034;-75
2021/11/21 23:08:30;;;;;;;47.57;15.00;;;3.80;99.90;;;;;;20661307;28;20380;-75
2021/11/21 23:18:31;;;;;;;39.30;14.65;;;3.80;99.90;;;;;;20661262;28;20295;-76
2021/11/21 23:28:32;;;;;;;;;;;3.80;99.90;;;;;;20676536;28;20504;-76
2021/11/21 23:38:33;;;;;;;43.08;15.25;;;3.80;99.90;;;;;;20673969;28;19910;-76
2021/11/21 23:48:33;;;;;;;;;;;3.80;99.90;;;;;;20675031;28;20022;-76
2021/11/21 23:58:34;;;;;;;43.23;17.17;;;3.70;99.90;;;;;;20672736;28;19953;-76
